createdAt,value
2023-06-11T00:00:43.529Z,1008.75
2023-06-11T00:01:43.525Z,1008.78
2023-06-11T00:02:43.618Z,1008.74
2023-06-11T00:03:43.678Z,1008.74
2023-06-11T00:04:43.522Z,1008.76
2023-06-11T00:05:43.478Z,1008.79
2023-06-11T00:06:43.469Z,1008.75
2023-06-11T00:07:43.462Z,1008.76
2023-06-11T00:08:43.557Z,1008.76
2023-06-11T00:09:43.434Z,1008.77
2023-06-11T00:10:43.461Z,1008.76
2023-06-11T00:11:43.414Z,1008.79
2023-06-11T00:12:43.404Z,1008.77
2023-06-11T00:13:43.404Z,1008.77
2023-06-11T00:14:43.379Z,1008.79
2023-06-11T00:15:43.401Z,1008.75
2023-06-11T00:16:43.440Z,1008.76
2023-06-11T00:17:43.370Z,1008.78
2023-06-11T00:18:43.337Z,1008.78
2023-06-11T00:19:43.356Z,1008.83
2023-06-11T00:20:43.322Z,1008.81
2023-06-11T00:21:43.311Z,1008.79
2023-06-11T00:22:43.295Z,1008.82
2023-06-11T00:23:43.368Z,1008.82
2023-06-11T00:24:43.303Z,1008.79
2023-06-11T00:25:43.296Z,1008.82
2023-06-11T00:26:43.254Z,1008.83
2023-06-11T00:27:43.246Z,1008.83
2023-06-11T00:28:43.231Z,1008.82
2023-06-11T00:29:43.227Z,1008.80
2023-06-11T00:30:43.213Z,1008.83
2023-06-11T00:31:43.221Z,1008.78
2023-06-11T00:32:43.220Z,1008.80
2023-06-11T00:33:43.199Z,1008.80
2023-06-11T00:34:43.180Z,1008.79
2023-06-11T00:35:43.161Z,1008.79
2023-06-11T00:36:43.150Z,1008.77
2023-06-11T00:37:43.148Z,1008.74
2023-06-11T00:38:43.126Z,1008.75
2023-06-11T00:39:43.127Z,1008.76
2023-06-11T00:40:43.126Z,1008.76
2023-06-11T00:41:43.099Z,1008.73
2023-06-11T00:42:43.096Z,1008.71
2023-06-11T00:43:43.073Z,1008.73
2023-06-11T00:44:43.062Z,1008.73
2023-06-11T00:45:43.088Z,1008.70
2023-06-11T00:46:43.054Z,1008.71
2023-06-11T00:47:43.057Z,1008.74
2023-06-11T00:48:43.041Z,1008.71
2023-06-11T00:49:43.011Z,1008.69
2023-06-11T00:50:42.999Z,1008.70
2023-06-11T00:51:42.990Z,1008.69
2023-06-11T00:52:42.976Z,1008.73
2023-06-11T00:53:42.979Z,1008.70
2023-06-11T00:54:42.966Z,1008.76
2023-06-11T00:55:42.952Z,1008.70
2023-06-11T00:56:42.961Z,1008.75
2023-06-11T00:57:42.953Z,1008.69
2023-06-11T00:58:42.988Z,1008.71
2023-06-11T00:59:42.906Z,1008.68
2023-06-11T01:00:42.944Z,1008.67
2023-06-11T01:01:43.043Z,1008.65
2023-06-11T01:02:42.983Z,1008.69
2023-06-11T01:03:42.868Z,1008.70
2023-06-11T01:04:43.018Z,1008.71
2023-06-11T01:05:42.899Z,1008.67
2023-06-11T01:06:42.827Z,1008.71
2023-06-11T01:07:42.813Z,1008.71
2023-06-11T01:08:42.815Z,1008.69
2023-06-11T01:09:42.800Z,1008.73
2023-06-11T01:10:42.783Z,1008.76
2023-06-11T01:11:42.774Z,1008.77
2023-06-11T01:12:42.797Z,1008.73
2023-06-11T01:13:42.756Z,1008.75
2023-06-11T01:14:42.742Z,1008.73
2023-06-11T01:15:42.730Z,1008.74
2023-06-11T01:16:42.725Z,1008.72
2023-06-11T01:17:42.788Z,1008.73
2023-06-11T01:18:42.696Z,1008.72
2023-06-11T01:19:42.689Z,1008.73
2023-06-11T01:20:42.676Z,1008.70
2023-06-11T01:21:42.668Z,1008.70
2023-06-11T01:22:42.654Z,1008.72
2023-06-11T01:23:42.902Z,1008.71
2023-06-11T01:24:42.639Z,1008.69
2023-06-11T01:25:42.624Z,1008.71
2023-06-11T01:26:42.609Z,1008.70
2023-06-11T01:27:42.606Z,1008.72
2023-06-11T01:28:42.619Z,1008.71
2023-06-11T01:29:42.580Z,1008.70
2023-06-11T01:30:42.571Z,1008.71
2023-06-11T01:31:42.645Z,1008.73
2023-06-11T01:32:42.615Z,1008.73
2023-06-11T01:33:42.539Z,1008.67
2023-06-11T01:34:42.686Z,1008.69
2023-06-11T01:35:42.522Z,1008.68
2023-06-11T01:36:42.510Z,1008.69
2023-06-11T01:37:42.494Z,1008.70
2023-06-11T01:38:42.494Z,1008.75
2023-06-11T01:39:42.476Z,1008.76
2023-06-11T01:40:42.469Z,1008.74
2023-06-11T01:41:42.453Z,1008.78
2023-06-11T01:42:42.452Z,1008.77
2023-06-11T01:43:42.430Z,1008.78
2023-06-11T01:44:42.442Z,1008.79
2023-06-11T01:45:42.414Z,1008.78
2023-06-11T01:46:42.474Z,1008.80
2023-06-11T01:47:42.441Z,1008.82
2023-06-11T01:48:42.376Z,1008.77
2023-06-11T01:49:42.367Z,1008.80
2023-06-11T01:50:42.354Z,1008.80
2023-06-11T01:51:42.347Z,1008.83
2023-06-11T01:52:42.349Z,1008.82
2023-06-11T01:53:42.328Z,1008.82
2023-06-11T01:54:42.316Z,1008.82
2023-06-11T01:55:42.311Z,1008.81
2023-06-11T01:56:42.291Z,1008.83
2023-06-11T01:57:42.289Z,1008.82
2023-06-11T01:58:42.275Z,1008.83
2023-06-11T01:59:42.265Z,1008.83
2023-06-11T02:00:42.270Z,1008.85
2023-06-11T02:01:42.326Z,1008.84
2023-06-11T02:02:42.409Z,1008.83
2023-06-11T02:03:42.541Z,1008.84
2023-06-11T02:04:42.206Z,1008.84
2023-06-11T02:05:42.198Z,1008.86
2023-06-11T02:06:42.188Z,1008.88
2023-06-11T02:07:42.178Z,1008.88
2023-06-11T02:08:42.169Z,1008.92
2023-06-11T02:09:42.158Z,1008.95
2023-06-11T02:10:42.141Z,1008.92
2023-06-11T02:11:42.132Z,1008.96
2023-06-11T02:12:42.126Z,1008.92
2023-06-11T02:13:42.116Z,1008.99
2023-06-11T02:14:42.105Z,1008.97
2023-06-11T02:15:42.096Z,1008.93
2023-06-11T02:16:42.128Z,1008.95
2023-06-11T02:17:42.108Z,1008.93
2023-06-11T02:18:42.056Z,1008.96
2023-06-11T02:19:42.048Z,1008.95
2023-06-11T02:20:42.032Z,1008.94
2023-06-11T02:21:42.031Z,1008.91
2023-06-11T02:22:42.025Z,1008.94
2023-06-11T02:23:42.015Z,1008.91
2023-06-11T02:24:41.994Z,1008.95
2023-06-11T02:25:41.997Z,1008.93
2023-06-11T02:26:41.972Z,1008.95
2023-06-11T02:27:41.974Z,1008.91
2023-06-11T02:28:41.951Z,1008.93
2023-06-11T02:29:41.943Z,1008.95
2023-06-11T02:30:41.929Z,1008.93
2023-06-11T02:31:41.995Z,1008.95
2023-06-11T02:32:41.976Z,1008.92
2023-06-11T02:33:41.912Z,1008.94
2023-06-11T02:34:41.889Z,1008.95
2023-06-11T02:35:41.879Z,1008.99
2023-06-11T02:36:41.864Z,1008.96
2023-06-11T02:37:41.874Z,1008.93
2023-06-11T02:38:41.857Z,1008.92
2023-06-11T02:39:41.835Z,1008.93
2023-06-11T02:40:41.850Z,1008.88
2023-06-11T02:41:41.817Z,1008.90
2023-06-11T02:42:41.808Z,1008.92
2023-06-11T02:43:41.795Z,1008.91
2023-06-11T02:44:41.783Z,1008.93
2023-06-11T02:45:41.770Z,1008.91
2023-06-11T02:46:41.783Z,1008.92
2023-06-11T02:47:41.793Z,1008.90
2023-06-11T02:48:41.761Z,1008.90
2023-06-11T02:49:41.738Z,1008.90
2023-06-11T02:50:41.718Z,1008.95
2023-06-11T02:51:41.713Z,1008.92
2023-06-11T02:52:41.697Z,1008.93
2023-06-11T02:53:41.691Z,1008.87
2023-06-11T02:54:41.680Z,1008.90
2023-06-11T02:55:41.670Z,1008.90
2023-06-11T02:56:41.666Z,1008.85
2023-06-11T02:57:41.646Z,1008.88
2023-06-11T02:58:41.636Z,1008.87
2023-06-11T02:59:41.625Z,1008.92
2023-06-11T03:00:41.612Z,1008.94
2023-06-11T03:01:41.621Z,1008.90
2023-06-11T03:02:41.617Z,1008.97
2023-06-11T03:03:41.622Z,1008.95
2023-06-11T03:04:41.601Z,1008.96
2023-06-11T03:05:41.561Z,1008.93
2023-06-11T03:06:41.550Z,1008.98
2023-06-11T03:07:41.545Z,1008.97
2023-06-11T03:08:41.552Z,1008.92
2023-06-11T03:09:41.517Z,1008.95
2023-06-11T03:10:41.511Z,1008.96
2023-06-11T03:11:41.499Z,1008.98
2023-06-11T03:12:41.494Z,1008.99
2023-06-11T03:13:41.472Z,1008.95
2023-06-11T03:14:41.472Z,1008.98
2023-06-11T03:15:41.491Z,1008.96
2023-06-11T03:16:41.448Z,1008.98
2023-06-11T03:17:41.508Z,1008.98
2023-06-11T03:18:41.431Z,1008.95
2023-06-11T03:19:41.411Z,1008.91
2023-06-11T03:20:41.419Z,1008.98
2023-06-11T03:21:41.386Z,1008.92
2023-06-11T03:22:41.382Z,1008.98
2023-06-11T03:23:41.402Z,1008.93
2023-06-11T03:24:41.356Z,1008.94
2023-06-11T03:25:41.347Z,1008.94
2023-06-11T03:26:41.401Z,1008.96
2023-06-11T03:27:41.322Z,1008.96
2023-06-11T03:28:41.312Z,1008.96
2023-06-11T03:29:41.310Z,1008.95
2023-06-11T03:30:41.299Z,1008.94
2023-06-11T03:31:41.328Z,1008.96
2023-06-11T03:32:41.442Z,1008.99
2023-06-11T03:33:41.261Z,1008.99
2023-06-11T03:34:41.257Z,1008.96
2023-06-11T03:35:41.236Z,1008.97
2023-06-11T03:36:41.249Z,1008.99
2023-06-11T03:37:41.214Z,1008.98
2023-06-11T03:38:41.215Z,1008.95
2023-06-11T03:39:41.191Z,1008.94
2023-06-11T03:40:41.193Z,1008.97
2023-06-11T03:41:41.202Z,1008.96
2023-06-11T03:42:41.166Z,1008.97
2023-06-11T03:43:41.156Z,1008.98
2023-06-11T03:44:41.162Z,1009.01
2023-06-11T03:45:41.133Z,1008.93
2023-06-11T03:46:41.181Z,1008.97
2023-06-11T03:47:41.151Z,1008.96
2023-06-11T03:48:41.096Z,1008.92
2023-06-11T03:49:41.083Z,1008.93
2023-06-11T03:50:41.073Z,1008.95
2023-06-11T03:51:41.061Z,1008.99
2023-06-11T03:52:41.070Z,1008.99
2023-06-11T03:53:41.042Z,1008.98
2023-06-11T03:54:41.030Z,1008.96
2023-06-11T03:55:41.016Z,1008.95
2023-06-11T03:56:41.015Z,1008.96
2023-06-11T03:57:41.001Z,1008.94
2023-06-11T03:58:40.989Z,1008.95
2023-06-11T03:59:40.976Z,1008.99
2023-06-11T04:00:40.966Z,1009.00
2023-06-11T04:01:40.954Z,1008.93
2023-06-11T04:02:41.128Z,1008.96
2023-06-11T04:03:41.057Z,1008.97
2023-06-11T04:04:41.009Z,1008.97
2023-06-11T04:05:40.912Z,1008.98
2023-06-11T04:06:40.925Z,1008.99
2023-06-11T04:07:40.889Z,1009.01
2023-06-11T04:08:40.899Z,1009.01
2023-06-11T04:09:40.869Z,1009.04
2023-06-11T04:10:40.905Z,1009.02
2023-06-11T04:11:40.848Z,1009.01
2023-06-11T04:12:40.849Z,1009.01
2023-06-11T04:13:40.827Z,1009.02
2023-06-11T04:14:40.820Z,1008.99
2023-06-11T04:15:40.814Z,1009.03
2023-06-11T04:16:40.847Z,1009.04
2023-06-11T04:17:40.838Z,1009.03
2023-06-11T04:18:40.779Z,1009.04
2023-06-11T04:19:40.767Z,1009.04
2023-06-11T04:20:40.763Z,1009.08
2023-06-11T04:21:40.742Z,1009.04
2023-06-11T04:22:40.747Z,1009.09
2023-06-11T04:23:40.792Z,1009.09
2023-06-11T04:24:40.730Z,1009.05
2023-06-11T04:25:40.704Z,1009.07
2023-06-11T04:26:40.693Z,1009.07
2023-06-11T04:27:40.677Z,1009.11
2023-06-11T04:28:40.670Z,1009.10
2023-06-11T04:29:40.659Z,1009.10
2023-06-11T04:30:40.666Z,1009.10
2023-06-11T04:31:40.686Z,1009.10
2023-06-11T04:32:40.643Z,1009.07
2023-06-11T04:33:40.626Z,1009.11
2023-06-11T04:34:40.604Z,1009.06
2023-06-11T04:35:40.606Z,1009.05
2023-06-11T04:36:40.582Z,1009.03
2023-06-11T04:37:40.574Z,1009.09
2023-06-11T04:38:40.562Z,1009.07
2023-06-11T04:39:40.551Z,1009.06
2023-06-11T04:40:40.564Z,1009.07
2023-06-11T04:41:40.551Z,1009.05
2023-06-11T04:42:40.523Z,1009.06
2023-06-11T04:43:40.509Z,1009.06
2023-06-11T04:44:40.498Z,1009.07
2023-06-11T04:45:40.486Z,1009.07
2023-06-11T04:46:40.550Z,1009.05
2023-06-11T04:47:40.514Z,1009.05
2023-06-11T04:48:40.455Z,1009.01
2023-06-11T04:49:40.443Z,1009.01
2023-06-11T04:50:40.439Z,1009.03
2023-06-11T04:51:40.423Z,1009.02
2023-06-11T04:52:40.416Z,1009.09
2023-06-11T04:53:40.405Z,1009.07
2023-06-11T04:54:40.392Z,1009.07
2023-06-11T04:55:40.379Z,1009.09
2023-06-11T04:56:40.402Z,1009.12
2023-06-11T04:57:40.357Z,1009.13
2023-06-11T04:58:40.368Z,1009.15
2023-06-11T04:59:40.338Z,1009.17
2023-06-11T05:00:40.351Z,1009.17
2023-06-11T05:01:40.364Z,1009.17
2023-06-11T05:02:40.346Z,1009.17
2023-06-11T05:03:40.296Z,1009.15
2023-06-11T05:04:40.286Z,1009.09
2023-06-11T05:05:40.336Z,1009.10
2023-06-11T05:06:40.269Z,1009.08
2023-06-11T05:07:40.254Z,1009.13
2023-06-11T05:08:40.244Z,1009.14
2023-06-11T05:09:41.200Z,1009.13
2023-06-11T05:10:40.224Z,1009.14
2023-06-11T05:11:40.214Z,1009.16
2023-06-11T05:12:40.225Z,1009.19
2023-06-11T05:13:40.195Z,1009.22
2023-06-11T05:14:40.183Z,1009.21
2023-06-11T05:15:40.171Z,1009.24
2023-06-11T05:16:40.409Z,1009.22
2023-06-11T05:17:40.220Z,1009.22
2023-06-11T05:18:40.145Z,1009.16
2023-06-11T05:19:40.139Z,1009.20
2023-06-11T05:20:40.124Z,1009.16
2023-06-11T05:21:40.135Z,1009.20
2023-06-11T05:22:40.102Z,1009.17
2023-06-11T05:23:40.115Z,1009.16
2023-06-11T05:24:40.080Z,1009.18
2023-06-11T05:25:40.069Z,1009.18
2023-06-11T05:26:40.063Z,1009.18
2023-06-11T05:27:40.048Z,1009.19
2023-06-11T05:28:40.064Z,1009.18
2023-06-11T05:29:40.496Z,1009.18
2023-06-11T05:30:40.020Z,1009.19
2023-06-11T05:31:40.054Z,1009.20
2023-06-11T05:32:40.064Z,1009.19
2023-06-11T05:33:39.986Z,1009.19
2023-06-11T05:34:39.978Z,1009.20
2023-06-11T05:35:39.991Z,1009.20
2023-06-11T05:36:39.956Z,1009.22
2023-06-11T05:37:39.942Z,1009.18
2023-06-11T05:38:39.934Z,1009.18
2023-06-11T05:39:39.930Z,1009.22
2023-06-11T05:40:39.916Z,1009.18
2023-06-11T05:41:39.920Z,1009.21
2023-06-11T05:42:39.890Z,1009.25
2023-06-11T05:43:39.884Z,1009.30
2023-06-11T05:44:39.888Z,1009.31
2023-06-11T05:45:39.869Z,1009.31
2023-06-11T05:46:39.903Z,1009.30
2023-06-11T05:47:39.987Z,1009.37
2023-06-11T05:48:39.823Z,1009.36
2023-06-11T05:49:39.821Z,1009.40
2023-06-11T05:50:39.812Z,1009.35
2023-06-11T05:51:39.794Z,1009.35
2023-06-11T05:52:39.786Z,1009.40
2023-06-11T05:53:39.771Z,1009.36
2023-06-11T05:54:39.763Z,1009.37
2023-06-11T05:55:39.750Z,1009.38
2023-06-11T05:56:39.742Z,1009.39
2023-06-11T05:57:39.730Z,1009.36
2023-06-11T05:58:39.725Z,1009.42
2023-06-11T05:59:39.710Z,1009.38
2023-06-11T06:00:39.732Z,1009.40
2023-06-11T06:01:39.698Z,1009.41
2023-06-11T06:02:39.770Z,1009.42
2023-06-11T06:03:39.819Z,1009.41
2023-06-11T06:04:39.692Z,1009.41
2023-06-11T06:05:39.652Z,1009.37
2023-06-11T06:06:39.642Z,1009.38
2023-06-11T06:07:39.630Z,1009.41
2023-06-11T06:08:39.642Z,1009.44
2023-06-11T06:09:39.612Z,1009.46
2023-06-11T06:10:39.607Z,1009.41
2023-06-11T06:11:39.598Z,1009.40
2023-06-11T06:12:39.587Z,1009.43
2023-06-11T06:13:39.573Z,1009.45
2023-06-11T06:14:39.565Z,1009.46
2023-06-11T06:15:39.552Z,1009.44
2023-06-11T06:16:39.580Z,1009.46
2023-06-11T06:17:39.546Z,1009.50
2023-06-11T06:18:39.529Z,1009.46
2023-06-11T06:19:39.522Z,1009.49
2023-06-11T06:20:39.509Z,1009.52
2023-06-11T06:21:39.514Z,1009.50
2023-06-11T06:22:39.493Z,1009.55
2023-06-11T06:23:39.498Z,1009.52
2023-06-11T06:24:39.472Z,1009.51
2023-06-11T06:25:39.555Z,1009.53
2023-06-11T06:26:39.453Z,1009.57
2023-06-11T06:27:39.442Z,1009.57
2023-06-11T06:28:39.439Z,1009.57
2023-06-11T06:29:39.426Z,1009.52
2023-06-11T06:30:39.413Z,1009.53
2023-06-11T06:31:39.494Z,1009.55
2023-06-11T06:32:39.529Z,1009.55
2023-06-11T06:33:39.383Z,1009.57
2023-06-11T06:34:39.383Z,1009.55
2023-06-11T06:35:39.367Z,1009.57
2023-06-11T06:36:39.363Z,1009.58
2023-06-11T06:37:39.357Z,1009.57
2023-06-11T06:38:39.346Z,1009.57
2023-06-11T06:39:39.344Z,1009.54
2023-06-11T06:40:39.329Z,1009.55
2023-06-11T06:41:39.323Z,1009.57
2023-06-11T06:42:39.316Z,1009.61
2023-06-11T06:43:39.301Z,1009.60
2023-06-11T06:44:39.298Z,1009.59
2023-06-11T06:45:39.279Z,1009.62
2023-06-11T06:46:39.274Z,1009.62
2023-06-11T06:47:39.284Z,1009.61
2023-06-11T06:48:39.353Z,1009.62
2023-06-11T06:49:39.238Z,1009.60
2023-06-11T06:50:39.235Z,1009.60
2023-06-11T06:51:39.224Z,1009.58
2023-06-11T06:52:39.228Z,1009.57
2023-06-11T06:53:39.204Z,1009.59
2023-06-11T06:54:39.204Z,1009.61
2023-06-11T06:55:39.184Z,1009.60
2023-06-11T06:56:39.181Z,1009.62
2023-06-11T06:57:39.167Z,1009.60
2023-06-11T06:58:39.171Z,1009.63
2023-06-11T06:59:39.147Z,1009.64
2023-06-11T07:00:39.140Z,1009.64
2023-06-11T07:01:39.181Z,1009.66
2023-06-11T07:02:39.172Z,1009.62
2023-06-11T07:03:39.132Z,1009.64
2023-06-11T07:04:39.142Z,1009.61
2023-06-11T07:05:39.178Z,1009.58
2023-06-11T07:06:39.094Z,1009.66
2023-06-11T07:07:40.921Z,1009.72
2023-06-11T07:08:39.069Z,1009.69
2023-06-11T07:09:39.056Z,1009.64
2023-06-11T07:10:39.051Z,1009.68
2023-06-11T07:11:39.049Z,1009.68
2023-06-11T07:12:39.028Z,1009.69
2023-06-11T07:13:39.047Z,1009.71
2023-06-11T07:14:39.014Z,1009.78
2023-06-11T07:15:39.049Z,1009.78
2023-06-11T07:16:39.047Z,1009.77
2023-06-11T07:17:39.051Z,1009.81
2023-06-11T07:18:38.997Z,1009.79
2023-06-11T07:19:39.096Z,1009.81
2023-06-11T07:20:39.125Z,1009.80
2023-06-11T07:21:38.948Z,1009.78
2023-06-11T07:22:38.944Z,1009.81
2023-06-11T07:23:38.980Z,1009.83
2023-06-11T07:24:38.924Z,1009.83
2023-06-11T07:25:38.931Z,1009.81
2023-06-11T07:26:38.901Z,1009.81
2023-06-11T07:27:38.914Z,1009.76
2023-06-11T07:28:38.882Z,1009.75
2023-06-11T07:29:38.874Z,1009.77
2023-06-11T07:30:38.877Z,1009.78
2023-06-11T07:31:38.905Z,1009.77
2023-06-11T07:32:38.878Z,1009.79
2023-06-11T07:33:38.838Z,1009.79
2023-06-11T07:34:38.831Z,1009.73
2023-06-11T07:35:38.835Z,1009.75
2023-06-11T07:36:38.831Z,1009.76
2023-06-11T07:37:38.799Z,1009.75
2023-06-11T07:38:38.812Z,1009.77
2023-06-11T07:39:38.781Z,1009.76
2023-06-11T07:40:38.775Z,1009.81
2023-06-11T07:41:38.766Z,1009.78
2023-06-11T07:42:38.754Z,1009.78
2023-06-11T07:43:38.742Z,1009.74
2023-06-11T07:44:38.737Z,1009.76
2023-06-11T07:45:38.731Z,1009.78
2023-06-11T07:46:38.767Z,1009.77
2023-06-11T07:47:38.773Z,1009.80
2023-06-11T07:48:38.695Z,1009.78
2023-06-11T07:49:38.688Z,1009.81
2023-06-11T07:50:38.764Z,1009.82
2023-06-11T07:51:38.674Z,1009.82
2023-06-11T07:52:38.683Z,1009.83
2023-06-11T07:53:38.653Z,1009.84
2023-06-11T07:54:38.652Z,1009.82
2023-06-11T07:55:38.772Z,1009.82
2023-06-11T07:56:38.621Z,1009.79
2023-06-11T07:57:38.613Z,1009.77
2023-06-11T07:58:38.601Z,1009.77
2023-06-11T07:59:38.595Z,1009.76
2023-06-11T08:00:38.583Z,1009.79
2023-06-11T08:01:38.599Z,1009.76
2023-06-11T08:02:38.654Z,1009.81
2023-06-11T08:03:38.683Z,1009.79
2023-06-11T08:04:38.547Z,1009.81
2023-06-11T08:05:38.570Z,1009.81
2023-06-11T08:06:38.528Z,1009.85
2023-06-11T08:07:38.516Z,1009.81
2023-06-11T08:08:38.533Z,1009.87
2023-06-11T08:09:38.501Z,1009.85
2023-06-11T08:10:38.490Z,1009.84
2023-06-11T08:11:38.487Z,1009.84
2023-06-11T08:12:38.472Z,1009.85
2023-06-11T08:13:38.464Z,1009.85
2023-06-11T08:14:38.451Z,1009.85
2023-06-11T08:15:38.444Z,1009.81
2023-06-11T08:16:38.460Z,1009.82
2023-06-11T08:17:38.463Z,1009.86
2023-06-11T08:18:38.413Z,1009.80
2023-06-11T08:19:38.412Z,1009.81
2023-06-11T08:20:38.396Z,1009.78
2023-06-11T08:21:38.396Z,1009.84
2023-06-11T08:22:38.381Z,1009.82
2023-06-11T08:23:38.433Z,1009.86
2023-06-11T08:24:38.392Z,1009.83
2023-06-11T08:25:38.351Z,1009.80
2023-06-11T08:26:38.340Z,1009.83
2023-06-11T08:27:38.336Z,1009.79
2023-06-11T08:28:38.321Z,1009.78
2023-06-11T08:29:38.314Z,1009.74
2023-06-11T08:30:38.308Z,1009.71
2023-06-11T08:31:38.329Z,1009.76
2023-06-11T08:32:38.426Z,1009.72
2023-06-11T08:33:38.285Z,1009.70
2023-06-11T08:34:38.264Z,1009.67
2023-06-11T08:35:38.268Z,1009.68
2023-06-11T08:36:38.252Z,1009.62
2023-06-11T08:37:38.241Z,1009.65
2023-06-11T08:38:39.040Z,1009.62
2023-06-11T08:39:38.232Z,1009.61
2023-06-11T08:40:38.229Z,1009.66
2023-06-11T08:41:38.221Z,1009.60
2023-06-11T08:42:38.196Z,1009.59
2023-06-11T08:43:38.186Z,1009.59
2023-06-11T08:44:38.190Z,1009.57
2023-06-11T08:45:38.180Z,1009.55
2023-06-11T08:46:38.196Z,1009.57
2023-06-11T08:47:38.168Z,1009.58
2023-06-11T08:48:38.134Z,1009.63
2023-06-11T08:49:38.950Z,1009.59
2023-06-11T08:50:38.113Z,1009.61
2023-06-11T08:51:38.130Z,1009.62
2023-06-11T08:52:38.094Z,1009.58
2023-06-11T08:53:38.088Z,1009.56
2023-06-11T08:54:38.073Z,1009.52
2023-06-11T08:55:38.080Z,1009.51
2023-06-11T08:56:38.084Z,1009.55
2023-06-11T08:57:38.045Z,1009.54
2023-06-11T08:58:38.035Z,1009.53
2023-06-11T08:59:38.038Z,1009.53
2023-06-11T09:00:38.017Z,1009.51
2023-06-11T09:01:38.077Z,1009.54
2023-06-11T09:02:38.047Z,1009.52
2023-06-11T09:03:38.005Z,1009.49
2023-06-11T09:04:37.977Z,1009.51
2023-06-11T09:05:37.981Z,1009.51
2023-06-11T09:06:37.955Z,1009.50
2023-06-11T09:07:37.949Z,1009.52
2023-06-11T09:08:37.958Z,1009.54
2023-06-11T09:09:37.936Z,1009.48
2023-06-11T09:10:37.916Z,1009.55
2023-06-11T09:11:37.926Z,1009.51
2023-06-11T09:12:37.952Z,1009.53
2023-06-11T09:13:37.889Z,1009.52
2023-06-11T09:14:37.879Z,1009.50
2023-06-11T09:15:37.887Z,1009.56
2023-06-11T09:16:37.903Z,1009.55
2023-06-11T09:17:37.865Z,1009.53
2023-06-11T09:18:37.844Z,1009.50
2023-06-11T09:19:37.832Z,1009.49
2023-06-11T09:20:37.829Z,1009.51
2023-06-11T09:21:37.821Z,1009.52
2023-06-11T09:22:37.800Z,1009.50
2023-06-11T09:23:37.817Z,1009.51
2023-06-11T09:24:37.782Z,1009.48
2023-06-11T09:25:37.774Z,1009.45
2023-06-11T09:26:37.766Z,1009.45
2023-06-11T09:27:37.757Z,1009.44
2023-06-11T09:28:37.770Z,1009.47
2023-06-11T09:29:37.735Z,1009.43
2023-06-11T09:30:37.723Z,1009.44
2023-06-11T09:31:37.737Z,1009.48
2023-06-11T09:32:37.875Z,1009.50
2023-06-11T09:33:37.756Z,1009.50
2023-06-11T09:34:37.685Z,1009.50
2023-06-11T09:35:37.675Z,1009.46
2023-06-11T09:36:37.666Z,1009.46
2023-06-11T09:37:37.660Z,1009.46
2023-06-11T09:38:37.647Z,1009.51
2023-06-11T09:39:37.638Z,1009.45
2023-06-11T09:40:37.631Z,1009.45
2023-06-11T09:41:37.619Z,1009.47
2023-06-11T09:42:37.607Z,1009.44
2023-06-11T09:43:37.660Z,1009.45
2023-06-11T09:44:37.610Z,1009.45
2023-06-11T09:45:37.612Z,1009.46
2023-06-11T09:46:37.596Z,1009.51
2023-06-11T09:47:37.621Z,1009.53
2023-06-11T09:48:37.551Z,1009.51
2023-06-11T09:49:37.550Z,1009.50
2023-06-11T09:50:37.529Z,1009.45
2023-06-11T09:51:37.521Z,1009.48
2023-06-11T09:52:37.512Z,1009.44
2023-06-11T09:53:37.501Z,1009.50
2023-06-11T09:54:37.491Z,1009.48
2023-06-11T09:55:37.486Z,1009.44
2023-06-11T09:56:37.473Z,1009.45
2023-06-11T09:57:37.478Z,1009.51
2023-06-11T09:58:37.478Z,1009.49
2023-06-11T09:59:37.457Z,1009.49
2023-06-11T10:00:37.466Z,1009.48
2023-06-11T10:01:37.499Z,1009.54
2023-06-11T10:02:37.433Z,1009.48
2023-06-11T10:03:37.557Z,1009.50
2023-06-11T10:04:37.396Z,1009.56
2023-06-11T10:05:37.397Z,1009.57
2023-06-11T10:06:37.418Z,1009.57
2023-06-11T10:07:37.370Z,1009.49
2023-06-11T10:08:37.362Z,1009.50
2023-06-11T10:09:37.351Z,1009.56
2023-06-11T10:10:37.338Z,1009.51
2023-06-11T10:11:37.334Z,1009.48
2023-06-11T10:12:37.318Z,1009.51
2023-06-11T10:13:37.330Z,1009.52
2023-06-11T10:14:37.301Z,1009.54
2023-06-11T10:15:37.297Z,1009.60
2023-06-11T10:16:37.326Z,1009.59
2023-06-11T10:17:37.300Z,1009.55
2023-06-11T10:18:37.269Z,1009.55
2023-06-11T10:19:37.257Z,1009.49
2023-06-11T10:20:37.245Z,1009.52
2023-06-11T10:21:37.234Z,1009.46
2023-06-11T10:22:37.221Z,1009.55
2023-06-11T10:23:37.351Z,1009.44
2023-06-11T10:24:37.200Z,1009.41
2023-06-11T10:25:37.204Z,1009.53
2023-06-11T10:26:37.245Z,1009.51
2023-06-11T10:27:37.179Z,1009.46
2023-06-11T10:28:37.163Z,1009.46
2023-06-11T10:29:37.157Z,1009.45
2023-06-11T10:30:37.149Z,1009.47
2023-06-11T10:31:37.141Z,1009.49
2023-06-11T10:32:37.225Z,1009.44
2023-06-11T10:33:37.281Z,1009.52
2023-06-11T10:34:37.232Z,1009.53
2023-06-11T10:35:37.099Z,1009.55
2023-06-11T10:36:37.204Z,1009.44
2023-06-11T10:37:37.076Z,1009.52
2023-06-11T10:38:37.065Z,1009.54
2023-06-11T10:39:37.057Z,1009.55
2023-06-11T10:40:37.098Z,1009.47
2023-06-11T10:41:37.044Z,1009.44
2023-06-11T10:42:37.035Z,1009.45
2023-06-11T10:43:37.034Z,1009.45
2023-06-11T10:44:37.004Z,1009.36
2023-06-11T10:45:37.003Z,1009.44
2023-06-11T10:46:37.006Z,1009.41
2023-06-11T10:47:37.007Z,1009.45
2023-06-11T10:48:36.987Z,1009.48
2023-06-11T10:49:36.959Z,1009.45
2023-06-11T10:50:36.958Z,1009.44
2023-06-11T10:51:39.270Z,1009.45
2023-06-11T10:52:36.923Z,1009.42
2023-06-11T10:53:36.916Z,1009.47
2023-06-11T10:54:36.904Z,1009.47
2023-06-11T10:55:36.897Z,1009.44
2023-06-11T10:56:36.884Z,1009.46
2023-06-11T10:57:36.882Z,1009.42
2023-06-11T10:58:36.867Z,1009.43
2023-06-11T10:59:36.859Z,1009.49
2023-06-11T11:00:36.845Z,1009.48
2023-06-11T11:01:36.887Z,1009.40
2023-06-11T11:02:36.882Z,1009.43
2023-06-11T11:03:37.049Z,1009.39
2023-06-11T11:04:36.833Z,1009.41
2023-06-11T11:05:36.796Z,1009.40
2023-06-11T11:06:36.782Z,1009.34
2023-06-11T11:07:36.777Z,1009.39
2023-06-11T11:08:36.769Z,1009.39
2023-06-11T11:09:36.775Z,1009.38
2023-06-11T11:10:36.744Z,1009.37
2023-06-11T11:11:36.733Z,1009.39
2023-06-11T11:12:36.720Z,1009.38
2023-06-11T11:13:36.752Z,1009.36
2023-06-11T11:14:36.720Z,1009.39
2023-06-11T11:15:36.712Z,1009.36
2023-06-11T11:16:36.709Z,1009.42
2023-06-11T11:17:36.679Z,1009.41
2023-06-11T11:18:36.660Z,1009.38
2023-06-11T11:19:36.653Z,1009.39
2023-06-11T11:20:36.662Z,1009.42
2023-06-11T11:21:36.647Z,1009.34
2023-06-11T11:22:36.624Z,1009.33
2023-06-11T11:23:36.631Z,1009.35
2023-06-11T11:24:39.091Z,1009.29
2023-06-11T11:25:36.597Z,1009.33
2023-06-11T11:26:36.579Z,1009.31
2023-06-11T11:27:36.570Z,1009.30
2023-06-11T11:28:36.563Z,1009.38
2023-06-11T11:29:36.557Z,1009.34
2023-06-11T11:30:36.539Z,1009.35
2023-06-11T11:31:36.549Z,1009.31
2023-06-11T11:32:36.543Z,1009.31
2023-06-11T11:33:36.510Z,1009.35
2023-06-11T11:34:36.502Z,1009.32
2023-06-11T11:35:36.490Z,1009.32
2023-06-11T11:36:36.501Z,1009.33
2023-06-11T11:37:36.472Z,1009.29
2023-06-11T11:38:36.475Z,1009.30
2023-06-11T11:39:36.450Z,1009.34
2023-06-11T11:40:36.444Z,1009.29
2023-06-11T11:41:36.432Z,1009.32
2023-06-11T11:42:36.427Z,1009.27
2023-06-11T11:43:36.415Z,1009.24
2023-06-11T11:44:36.406Z,1009.20
2023-06-11T11:45:36.396Z,1009.19
2023-06-11T11:46:36.397Z,1009.24
2023-06-11T11:47:36.401Z,1009.23
2023-06-11T11:48:36.366Z,1009.28
2023-06-11T11:49:36.361Z,1009.23
2023-06-11T11:50:36.351Z,1009.22
2023-06-11T11:51:36.335Z,1009.18
2023-06-11T11:52:36.350Z,1009.12
2023-06-11T11:53:36.315Z,1009.08
2023-06-11T11:54:36.315Z,1009.22
2023-06-11T11:55:39.898Z,1009.21
2023-06-11T11:56:37.326Z,1009.17
2023-06-11T11:57:36.277Z,1009.20
2023-06-11T11:58:36.265Z,1009.21
2023-06-11T11:59:36.252Z,1009.20
2023-06-11T12:00:36.248Z,1009.15
2023-06-11T12:01:36.229Z,1009.17
2023-06-11T12:02:36.312Z,1009.15
2023-06-11T12:03:36.332Z,1009.13
2023-06-11T12:04:36.203Z,1009.17
2023-06-11T12:05:36.258Z,1009.19